Time;durP1;ratioP1;P1;durP2;ratioP2;P2;SDS_P1;SDS_P2;PMS_P1;PMS_P2;Temp;Humidity;BMP_temperature;BMP_pressure;BME280_temperature;BME280_humidity;BME280_pressure;Samples;Min_cycle;Max_cycle;Signal;HPM_P1;HPM_P2
2023/09/06 00:02:08;;;;;;;5.90;1.00;;;;;;;;;;20790350;28;20229;-68
2023/09/06 00:12:09;;;;;;;1.20;0.80;;;;;;;;;;20810649;28;20218;-68
2023/09/06 00:22:11;;;;;;;1.85;0.88;;;;;;;;;;20823462;28;20282;-68
2023/09/06 00:32:14;;;;;;;1.50;0.80;;;;;;;;;;20789095;28;20233;-67
2023/09/06 00:42:16;;;;;;;1.58;0.77;;;;;;;;;;20779578;28;20708;-68
2023/09/06 00:52:18;;;;;;;2.55;0.90;;;;;;;;;;20766734;28;20695;-68
2023/09/06 01:02:21;;;;;;;1.38;0.73;;;;;;;;;;20780586;28;20669;-68
2023/09/06 01:12:23;;;;;;;1.40;0.80;;;;;;;;;;20773032;28;20276;-68
2023/09/06 01:22:37;;;;;;;1.45;0.90;;;;;;;;;;20816666;28;20294;-68
2023/09/06 01:32:40;;;;;;;1.20;0.90;;;;;;;;;;20814799;28;20216;-67
2023/09/06 01:42:43;;;;;;;1.95;0.98;;;21.90;99.90;;;;;;20802754;28;20226;-68
2023/09/06 01:52:45;;;;;;;3.90;1.20;;;;;;;;;;20739910;28;20705;-68
2023/09/06 02:02:46;;;;;;;1.77;0.80;;;;;;;;;;20732006;28;20214;-68
2023/09/06 02:12:48;;;;;;;1.55;0.90;;;;;;;;;;20744174;28;20228;-68
2023/09/06 02:22:52;;;;;;;1.30;0.90;;;21.20;99.90;;;;;;20777276;28;20757;-68
2023/09/06 02:32:55;;;;;;;2.88;1.38;;;21.10;99.90;;;;;;20794022;28;20230;-68
2023/09/06 02:42:58;;;;;;;2.17;1.30;;;;;;;;;;20745342;28;20277;-68
2023/09/06 02:53:01;;;;;;;1.93;1.17;;;;;;;;;;20735904;28;20229;-67
2023/09/06 03:03:06;;;;;;;1.13;0.70;;;;;;;;;;20719529;28;20245;-68
2023/09/06 03:13:09;;;;;;;1.63;0.93;;;;;;;;;;20776949;28;20221;-67
2023/09/06 03:23:19;;;;;;;1.70;0.88;;;20.60;99.90;;;;;;20759449;28;20221;-67
2023/09/06 03:33:29;;;;;;;1.10;0.80;;;;;;;;;;20797124;28;20240;-67
2023/09/06 03:43:32;;;;;;;3.33;0.93;;;;;;;;;;20829743;28;20584;-68
2023/09/06 03:53:37;;;;;;;2.97;1.07;;;;;;;;;;20808732;28;20225;-68
2023/09/06 04:03:40;;;;;;;1.40;0.87;;;;;;;;;;20743175;28;20228;-68
2023/09/06 04:13:43;;;;;;;1.43;0.83;;;;;;;;;;20829687;28;20294;-68
2023/09/06 04:23:45;;;;;;;3.63;1.10;;;;;;;;;;20812896;28;20275;-68
2023/09/06 04:33:50;;;;;;;1.63;0.90;;;;;;;;;;20870084;28;20662;-69
2023/09/06 04:43:58;;;;;;;1.63;1.13;;;;;;;;;;20830707;28;20634;-69
2023/09/06 04:54:00;;;;;;;3.57;1.60;;;;;;;;;;20844533;28;20237;-69
2023/09/06 05:04:07;;;;;;;3.90;1.50;;;;;;;;;;20821526;28;20211;-70
2023/09/06 05:14:10;;;;;;;6.40;1.57;;;;;;;;;;20845734;28;20263;-70
2023/09/06 05:24:15;;;;;;;3.63;1.53;;;;;;;;;;20837520;28;20224;-70
2023/09/06 05:34:17;;;;;;;3.80;1.57;;;;;;;;;;20829902;28;20227;-73
2023/09/06 05:44:19;;;;;;;2.00;1.17;;;;;;;;;;20860263;23;20259;-74
2023/09/06 05:54:22;;;;;;;3.07;1.37;;;;;;;;;;20829969;28;20587;-73
2023/09/06 06:04:25;;;;;;;3.20;1.33;;;;;;;;;;20808900;28;20604;-73
2023/09/06 06:14:29;;;;;;;4.50;1.30;;;;;;;;;;20812145;28;20233;-73
2023/09/06 06:24:33;;;;;;;3.00;1.57;;;20.10;99.90;;;;;;20858636;28;20277;-74
2023/09/06 06:34:39;;;;;;;1.90;1.37;;;;;;;;;;20815829;28;20224;-74
2023/09/06 06:44:47;;;;;;;3.50;1.37;;;20.60;99.90;;;;;;20823267;28;20649;-73
2023/09/06 06:54:49;;;;;;;3.83;1.30;;;;;;;;;;20809241;28;20778;-74
2023/09/06 07:04:51;;;;;;;1.90;1.17;;;;;;;;;;20801920;28;20224;-73
2023/09/06 07:14:53;;;;;;;2.07;1.13;;;;;;;;;;20790639;28;20281;-74
2023/09/06 07:24:55;;;;;;;2.13;1.40;;;;;;;;;;20819062;28;20222;-74
2023/09/06 07:34:56;;;;;;;4.20;1.43;;;;;;;;;;20828475;28;20589;-74
2023/09/06 07:44:58;;;;;;;2.72;1.65;;;;;;;;;;20830415;28;20241;-75
2023/09/06 07:55:00;;;;;;;4.57;2.03;;;;;;;;;;20811037;28;20777;-74
2023/09/06 08:05:04;;;;;;;1.90;1.40;;;;;;;;;;20809659;28;20274;-74
2023/09/06 08:15:08;;;;;;;2.47;1.35;;;22.60;99.90;;;;;;20802795;28;20228;-74
2023/09/06 08:25:09;;;;;;;2.53;1.80;;;;;;;;;;20810593;28;20267;-74
2023/09/06 08:35:12;;;;;;;2.10;1.42;;;;;;;;;;20813118;28;20269;-74
2023/09/06 08:45:14;;;;;;;4.28;2.10;;;;;;;;;;20825931;28;20230;-74
2023/09/06 08:55:16;;;;;;;2.72;1.60;;;;;;;;;;20808888;28;20287;-74
2023/09/06 09:05:21;;;;;;;2.35;1.65;;;23.60;99.90;;;;;;20806462;28;20222;-74
2023/09/06 09:15:25;;;;;;;2.55;1.58;;;23.70;99.90;;;;;;20787630;28;20258;-74
2023/09/06 09:25:27;;;;;;;3.50;1.67;;;;;;;;;;20814670;28;20239;-74
2023/09/06 09:35:31;;;;;;;4.35;1.20;;;24.20;99.90;;;;;;20863961;28;20220;-74
2023/09/06 09:45:43;;;;;;;4.95;1.63;;;24.40;99.90;;;;;;20832665;28;20224;-74
2023/09/06 09:55:47;;;;;;;1.80;1.30;;;;;;;;;;20832803;28;20300;-74
2023/09/06 10:05:49;;;;;;;2.90;1.38;;;24.80;99.90;;;;;;20809718;28;20213;-74
2023/09/06 10:15:51;;;;;;;4.75;1.80;;;;;;;;;;20836915;28;20347;-74
2023/09/06 10:25:53;;;;;;;2.63;1.80;;;;;;;;;;20805623;28;20213;-74
2023/09/06 10:36:02;;;;;;;3.53;1.40;;;;;;;;;;20838427;28;20249;-74
2023/09/06 10:46:04;;;;;;;1.73;1.25;;;;;;;;;;20766773;28;1144189;-74
2023/09/06 10:56:07;;;;;;;1.58;0.90;;;;;;;;;;20814734;28;20228;-74
2023/09/06 11:06:09;;;;;;;2.17;1.00;;;;;;;;;;20803603;28;20252;-74
2023/09/06 11:16:17;;;;;;;1.65;1.00;;;26.10;99.90;;;;;;20804679;28;20630;-74
2023/09/06 11:26:20;;;;;;;2.70;0.90;;;;;;;;;;20825177;28;20246;-74
2023/09/06 11:36:26;;;;;;;2.20;1.30;;;;;;;;;;20838208;28;20267;-74
2023/09/06 11:46:28;;;;;;;2.20;1.38;;;;;;;;;;20894177;23;20294;-73
2023/09/06 11:56:33;;;;;;;1.17;0.90;;;;;;;;;;20868671;28;20680;-73
2023/09/06 12:06:35;;;;;;;1.10;0.90;;;;;;;;;;20805581;28;20213;-73
2023/09/06 12:16:37;;;;;;;2.13;1.02;;;;;;;;;;20859207;28;20700;-74
2023/09/06 12:26:39;;;;;;;2.00;1.08;;;;;;;;;;20853069;28;20213;-74
2023/09/06 12:36:41;;;;;;;2.20;1.10;;;;;;;;;;20855179;28;20225;-73
2023/09/06 12:46:43;;;;;;;2.15;0.93;;;;;;;;;;20811761;28;20287;-74
2023/09/06 12:56:45;;;;;;;1.73;1.10;;;;;;;;;;20828652;28;20291;-74
2023/09/06 13:06:46;;;;;;;1.60;1.08;;;;;;;;;;20846673;28;20248;-73
2023/09/06 13:16:48;;;;;;;2.00;1.00;;;;;;;;;;20853213;28;20279;-74
2023/09/06 13:26:51;;;;;;;4.57;1.13;;;;;;;;;;20837360;28;20651;-73
2023/09/06 13:36:53;;;;;;;1.27;1.02;;;;;;;;;;20880370;28;20213;-74
2023/09/06 13:46:58;;;;;;;2.03;1.00;;;;;;;;;;20840870;28;20773;-74
2023/09/06 13:56:59;;;;;;;1.42;0.93;;;;;;;;;;20840286;28;20221;-74
2023/09/06 14:07:01;;;;;;;1.80;0.90;;;;;;;;;;20857817;28;20550;-74
2023/09/06 14:17:03;;;;;;;2.08;1.02;;;;;;;;;;20806264;28;20234;-74
2023/09/06 14:27:05;;;;;;;1.35;0.80;;;;;;;;;;20830332;28;20222;-74
2023/09/06 14:37:06;;;;;;;1.08;0.80;;;;;;;;;;20854826;28;20252;-73
2023/09/06 14:47:08;;;;;;;1.10;0.80;;;;;;;;;;20829411;28;20227;-75
2023/09/06 14:57:10;;;;;;;0.95;0.77;;;;;;;;;;20867829;28;20294;-74
2023/09/06 15:07:11;;;;;;;1.35;0.88;;;;;;;;;;20836262;28;20279;-73
2023/09/06 15:17:13;;;;;;;1.23;0.73;;;;;;;;;;20812848;28;20724;-74
2023/09/06 15:27:15;;;;;;;2.80;0.98;;;;;;;;;;20835552;28;20218;-74
2023/09/06 15:37:17;;;;;;;0.90;0.57;;;;;;;;;;20875764;28;20625;-74
2023/09/06 15:47:19;;;;;;;2.58;0.85;;;;;;;;;;20838211;28;20697;-74
2023/09/06 15:57:20;;;;;;;1.45;0.80;;;;;;;;;;20877390;28;20222;-74
2023/09/06 16:07:23;;;;;;;1.92;0.80;;;;;;;;;;20849541;28;20447;-74
2023/09/06 16:17:25;;;;;;;0.73;0.60;;;;;;;;;;20830363;28;20581;-74
2023/09/06 16:27:26;;;;;;;2.67;0.90;;;;;;;;;;20844163;28;20279;-74
2023/09/06 16:37:28;;;;;;;0.98;0.55;;;;;;;;;;20855118;28;20649;-74
2023/09/06 16:47:30;;;;;;;2.47;0.88;;;;;;;;;;20858305;28;20250;-74
2023/09/06 16:57:31;;;;;;;3.10;1.05;;;;;;;;;;20882878;28;20232;-74
2023/09/06 17:07:34;;;;;;;1.40;0.60;;;;;;;;;;20864982;28;20289;-74
2023/09/06 17:17:36;;;;;;;2.08;0.80;;;;;;;;;;20882816;28;20237;-73
2023/09/06 17:27:41;;;;;;;2.50;0.80;;;;;;;;;;20886038;28;20220;-74
2023/09/06 17:37:43;;;;;;;3.58;0.90;;;;;;;;;;20841194;28;20213;-74
2023/09/06 17:47:46;;;;;;;3.65;0.90;;;;;;;;;;20959225;22;20244;-73
2023/09/06 17:57:48;;;;;;;2.88;1.10;;;;;;;;;;20924484;28;20223;-73
2023/09/06 18:07:50;;;;;;;11.15;10.05;;;;;;;;;;20932139;28;20226;-73
2023/09/06 18:17:52;;;;;;;16.40;14.90;;;;;;;;;;20948068;28;20476;-73
2023/09/06 18:27:54;;;;;;;5.60;4.85;;;;;;;;;;20947774;28;20248;-73
2023/09/06 18:37:56;;;;;;;15.18;12.52;;;;;;;;;;20944347;28;20684;-73
2023/09/06 18:47:59;;;;;;;9.52;6.47;;;;;;;;;;20979975;28;20293;-73
2023/09/06 18:58:01;;;;;;;3.60;1.90;;;;;;;;;;20964454;28;20223;-73
2023/09/06 19:08:04;;;;;;;1.60;1.10;;;;;;;;;;20961563;28;20268;-73
2023/09/06 19:18:06;;;;;;;2.20;1.02;;;;;;;;;;20944489;28;20281;-73
2023/09/06 19:28:09;;;;;;;3.30;1.02;;;;;;;;;;20976535;28;20215;-72
2023/09/06 19:38:10;;;;;;;3.83;1.20;;;;;;;;;;20954740;28;20224;-72
2023/09/06 19:48:12;;;;;;;3.80;0.90;;;;;;;;;;20952469;28;20286;-72
2023/09/06 19:58:14;;;;;;;2.13;0.98;;;;;;;;;;20953058;28;20220;-72
2023/09/06 20:08:16;;;;;;;1.88;0.80;;;;;;;;;;20936435;28;20271;-72
2023/09/06 20:18:20;;;;;;;2.80;0.90;;;;;;;;;;20971505;28;20289;-72
2023/09/06 20:28:21;;;;;;;2.17;1.20;;;;;;;;;;20974017;28;20248;-72
2023/09/06 20:38:23;;;;;;;2.33;0.98;;;;;;;;;;20953380;28;20230;-72
2023/09/06 20:48:29;;;;;;;2.88;1.00;;;;;;;;;;20974332;28;20382;-72
2023/09/06 20:58:31;;;;;;;1.50;0.95;;;;;;;;;;20972769;28;20255;-72
2023/09/06 21:08:33;;;;;;;2.80;1.10;;;;;;;;;;20936776;28;20298;-72
2023/09/06 21:18:35;;;;;;;1.70;1.05;;;;;;;;;;20953068;28;20223;-72
2023/09/06 21:28:37;;;;;;;3.40;1.30;;;;;;;;;;20952028;28;20223;-72
2023/09/06 21:38:38;;;;;;;2.72;0.93;;;;;;;;;;20952555;28;20286;-72
2023/09/06 21:48:40;;;;;;;1.63;1.00;;;;;;;;;;20946712;28;20228;-72
2023/09/06 21:58:42;;;;;;;3.95;1.13;;;;;;;;;;20950200;28;20227;-72
2023/09/06 22:08:53;;;;;;;2.45;1.10;;;;;;;;;;20968555;28;20216;-72
2023/09/06 22:19:14;;;;;;;1.88;1.15;;;23.90;99.90;;;;;;20955570;28;20234;-72
2023/09/06 22:29:16;;;;;;;1.75;1.02;;;;;;;;;;20966371;28;20238;-72
2023/09/06 22:39:18;;;;;;;3.35;1.00;;;;;;;;;;20948552;28;20226;-72
2023/09/06 22:49:20;;;;;;;4.10;1.20;;;;;;;;;;20948054;28;20543;-72
2023/09/06 22:59:22;;;;;;;1.85;1.10;;;;;;;;;;20944455;28;20225;-72
2023/09/06 23:09:24;;;;;;;1.67;1.15;;;;;;;;;;20931780;28;20231;-72
2023/09/06 23:19:28;;;;;;;1.50;0.90;;;;;;;;;;20955544;28;20233;-72
2023/09/06 23:29:34;;;;;;;1.35;0.82;;;;;;;;;;20947558;28;20553;-72
2023/09/06 23:39:40;;;;;;;1.77;1.02;;;;;;;;;;20958940;28;20685;-72
2023/09/06 23:49:44;;;;;;;1.67;1.20;;;;;;;;;;20786516;23;20234;-69
2023/09/06 23:59:46;;;;;;;1.48;1.15;;;;;;;;;;20797170;28;20796;-69
